Ladyhawk — WCY6804 — position and weather

sailwx.info

Track history (hours):
 
Tides and Currents Weather Stations Pressure Air Temp Water Temp Dewpoint Dewpoint Depression Visibility Wind Speed Wind Dir Waves Ship Positions

Ladyhawk

Owner: GRIGG, STEVEN A, WASHINGTON, DC. More information available from US FCC via Universal Licensing System and Coast Guard Vessel Documentation Center.

Last reported at 2017-Oct-22 18:10 UTC. Time now 2017-Nov-19 10:34 UTC.
Position N 38°58' W 076°28'.
Warning: this ship's position is 27 days out of date.

Length 16 m.

Type: Sailing vessel. MMSI: 338013912.

Date/timePositionNaut miles runAvg speedWind from/ knotsBaromVisibWave heightAir tempDewpointWater temp
2017-Oct-22 18:10N 38°58' W 076°28'0 0.0
2017-Oct-22 17:58N 38°58' W 076°28'0 0.7
2017-Oct-22 17:30N 38°58' W 076°28'4 7.2
2017-Oct-22 17:00N 38°59' W 076°24'3 5.0
2017-Oct-22 16:29N 39°00' W 076°21'2 4.4
2017-Oct-22 16:00N 39°02' W 076°22'3 5.2
2017-Oct-22 15:30N 39°03' W 076°25'2 4.4
2017-Oct-22 15:00N 39°05' W 076°27'1 1.6
2017-Oct-22 14:30N 39°05' W 076°26'0 0.0
2017-Oct-22 13:57N 39°05' W 076°26'0 0.0
2017-Oct-22 13:27N 39°05' W 076°26'0 0.0
2017-Oct-22 12:57N 39°05' W 076°26'0 0.0
2017-Oct-22 12:27N 39°05' W 076°26'0 0.0
2017-Oct-22 12:00N 39°05' W 076°26'0 0.0
2017-Oct-22 11:21N 39°05' W 076°26'0 0.0
2017-Oct-22 11:00N 39°05' W 076°26'0 0.0
2017-Oct-22 09:09N 39°05' W 076°26'0 0.0
2017-Oct-22 08:51N 39°05' W 076°26'0 0.0
2017-Oct-22 08:15N 39°05' W 076°26'0 0.0
2017-Oct-22 07:27N 39°05' W 076°26'0 0.0
2017-Oct-22 06:48N 39°05' W 076°26'0 0.0
2017-Oct-22 06:30N 39°05' W 076°26'1 0.1
2017-Oct-21 17:44N 39°05' W 076°27'2 6.4
2017-Oct-21 17:24N 39°03' W 076°26'2 5.2
2017-Oct-21 17:00N 39°02' W 076°23'3 5.4
2017-Oct-21 16:30N 38°60' W 076°23'3 6.5
2017-Oct-21 16:00N 38°58' W 076°27'2 3.0
2017-Oct-21 15:30N 38°58' W 076°28'0 0.0
2017-Oct-21 15:00N 38°58' W 076°28'0 0.0
2017-Oct-21 14:00N 38°58' W 076°28'0 0.0
2017-Oct-21 13:30N 38°58' W 076°28'0 0.0
2017-Oct-21 13:00N 38°58' W 076°28'0 0.0
2017-Oct-21 12:30N 38°58' W 076°28'0 0.0
2017-Oct-21 12:00N 38°58' W 076°28'0 0.0
2017-Oct-21 11:30N 38°58' W 076°28'0 0.0
2017-Oct-21 11:00N 38°58' W 076°28'0 0.0
2017-Oct-21 10:30N 38°58' W 076°28'0 0.0
2017-Oct-21 10:00N 38°58' W 076°28'0 0.0
2017-Oct-21 09:30N 38°58' W 076°28'0 0.0
2017-Oct-21 09:00N 38°58' W 076°28'0 0.0
2017-Oct-21 08:30N 38°58' W 076°28'0 0.0
2017-Oct-21 08:00N 38°58' W 076°28'0 0.0
2017-Oct-21 07:30N 38°58' W 076°28'0 0.0
2017-Oct-21 07:00N 38°58' W 076°28'0 0.0
2017-Oct-21 06:30N 38°58' W 076°28'0 0.0
2017-Oct-21 06:00N 38°58' W 076°28'0 0.0
2017-Oct-21 05:30N 38°58' W 076°28'0 0.0
2017-Oct-21 05:00N 38°58' W 076°28'0 0.0
2017-Oct-21 04:30N 38°58' W 076°28'0 0.0
2017-Oct-21 04:00N 38°58' W 076°28'0 0.0
2017-Oct-21 03:30N 38°58' W 076°28'0 0.0
2017-Oct-21 03:00N 38°58' W 076°28'0 0.0
2017-Oct-21 02:27N 38°58' W 076°28'0 0.0
2017-Oct-21 02:00N 38°58' W 076°28'0 0.0
2017-Oct-21 01:30N 38°58' W 076°28'0 0.0
2017-Oct-21 01:00N 38°58' W 076°28'0 0.0
2017-Oct-21 00:30N 38°58' W 076°28'0 0.0
2017-Oct-21 00:00N 38°58' W 076°28'0 0.0
2017-Oct-20 23:30N 38°58' W 076°28'0 0.0
2017-Oct-20 23:00N 38°58' W 076°28'0 0.0
2017-Oct-20 22:30N 38°58' W 076°28'0 0.0
2017-Oct-20 22:00N 38°58' W 076°28'0 0.0
2017-Oct-20 21:30N 38°58' W 076°28'0 0.0
2017-Oct-20 21:00N 38°58' W 076°28'0 0.0
2017-Oct-20 20:30N 38°58' W 076°28'0 0.0
2017-Oct-20 20:00N 38°58' W 076°28'0 0.0
2017-Oct-20 19:30N 38°58' W 076°28'0 0.0
2017-Oct-20 19:00N 38°58' W 076°28'  
2017-Oct-15 15:28N 38°58' W 076°28'0 0.0
2017-Oct-15 14:58N 38°58' W 076°28'0 0.0
2017-Oct-15 13:58N 38°58' W 076°28'0 0.0
2017-Oct-15 13:28N 38°58' W 076°28'0 0.0
2017-Oct-15 12:58N 38°58' W 076°28'0 0.0
2017-Oct-15 12:28N 38°58' W 076°28'0 0.0
2017-Oct-15 11:58N 38°58' W 076°28'0 0.0
2017-Oct-15 11:28N 38°58' W 076°28'0 0.0
2017-Oct-15 10:58N 38°58' W 076°28'0 0.0
2017-Oct-15 10:28N 38°58' W 076°28'0 0.0
2017-Oct-15 09:58N 38°58' W 076°28'0 0.0
2017-Oct-15 09:28N 38°58' W 076°28'0 0.0
2017-Oct-15 08:58N 38°58' W 076°28'0 0.0
2017-Oct-15 08:28N 38°58' W 076°28'0 0.0
2017-Oct-15 07:58N 38°58' W 076°28'0 0.0
2017-Oct-15 07:28N 38°58' W 076°28'0 0.0
2017-Oct-15 06:58N 38°58' W 076°28'0 0.0
2017-Oct-15 06:28N 38°58' W 076°28'0 0.0
2017-Oct-15 05:58N 38°58' W 076°28'0 0.0
2017-Oct-15 05:28N 38°58' W 076°28'0 0.0
2017-Oct-15 04:58N 38°58' W 076°28'0 0.0
2017-Oct-15 04:28N 38°58' W 076°28'0 0.0
2017-Oct-15 03:58N 38°58' W 076°28'0 0.0
2017-Oct-15 03:28N 38°58' W 076°28'0 0.0
2017-Oct-15 02:58N 38°58' W 076°28'0 0.0
2017-Oct-15 02:28N 38°58' W 076°28'0 0.0
2017-Oct-15 01:58N 38°58' W 076°28'0 0.0
2017-Oct-15 01:28N 38°58' W 076°28'0 0.0
2017-Oct-15 00:58N 38°58' W 076°28'0 0.0
2017-Oct-15 00:28N 38°58' W 076°28'0 0.0
2017-Oct-14 23:58N 38°58' W 076°28'0 0.0
2017-Oct-14 23:28N 38°58' W 076°28'0 0.0
2017-Oct-14 22:58N 38°58' W 076°28'0 0.0
2017-Oct-14 22:28N 38°58' W 076°28'0 0.0
2017-Oct-14 21:58N 38°58' W 076°28'0 0.0
2017-Oct-14 21:28N 38°58' W 076°28'0 0.0
2017-Oct-14 20:58N 38°58' W 076°28'0 0.0
2017-Oct-14 20:28N 38°58' W 076°28'0 0.0
2017-Oct-14 19:58N 38°58' W 076°28'0 0.0
2017-Oct-14 19:28N 38°58' W 076°28'0 0.0
2017-Oct-14 18:58N 38°58' W 076°28'0 0.0
2017-Oct-14 18:28N 38°58' W 076°28'0 0.0
2017-Oct-14 17:58N 38°58' W 076°28'0 0.0
2017-Oct-14 17:28N 38°58' W 076°28'0 0.0
2017-Oct-14 16:58N 38°58' W 076°28'0 0.0
2017-Oct-14 16:28N 38°58' W 076°28'0 0.0
2017-Oct-14 15:58N 38°58' W 076°28'0 0.0
2017-Oct-14 15:28N 38°58' W 076°28'0 0.0
2017-Oct-14 14:58N 38°58' W 076°28'0 0.0
2017-Oct-14 14:28N 38°58' W 076°28'0 0.0
2017-Oct-14 13:58N 38°58' W 076°28'0 0.0
2017-Oct-14 13:28N 38°58' W 076°28'0 0.0
2017-Oct-14 12:58N 38°58' W 076°28'0 0.0
2017-Oct-14 12:28N 38°58' W 076°28'0 0.0
2017-Oct-14 11:58N 38°58' W 076°28'0 0.0
2017-Oct-14 11:28N 38°58' W 076°28'0 0.0
2017-Oct-14 10:58N 38°58' W 076°28'0 0.0
2017-Oct-14 10:28N 38°58' W 076°28'0 0.0
2017-Oct-14 09:58N 38°58' W 076°28'0 0.0
2017-Oct-14 09:28N 38°58' W 076°28'0 0.0
2017-Oct-14 08:58N 38°58' W 076°28'0 0.0
2017-Oct-14 08:28N 38°58' W 076°28'0 0.0
2017-Oct-14 07:58N 38°58' W 076°28'0 0.0
2017-Oct-14 07:25N 38°58' W 076°28'0 0.0
2017-Oct-14 06:58N 38°58' W 076°28'0 0.0
2017-Oct-14 06:28N 38°58' W 076°28'0 0.0
2017-Oct-14 05:58N 38°58' W 076°28'0 0.0
2017-Oct-14 05:28N 38°58' W 076°28'0 0.0
2017-Oct-14 04:58N 38°58' W 076°28'0 0.0
2017-Oct-14 04:28N 38°58' W 076°28'0 0.0
2017-Oct-14 03:58N 38°58' W 076°28'0 0.0
2017-Oct-14 03:28N 38°58' W 076°28'0 0.0
2017-Oct-14 02:58N 38°58' W 076°28'0 0.0
2017-Oct-14 02:28N 38°58' W 076°28'0 0.0
2017-Oct-14 01:58N 38°58' W 076°28'0 0.0
2017-Oct-13 23:19N 38°58' W 076°28'0 0.0
2017-Oct-13 22:58N 38°58' W 076°28'0 0.0
2017-Oct-13 22:28N 38°58' W 076°28'0 0.0
2017-Oct-13 21:58N 38°58' W 076°28'0 0.0
2017-Oct-13 21:28N 38°58' W 076°28'0 0.0
2017-Oct-13 20:58N 38°58' W 076°28'  
Track history (hours):
 
Tides and Currents Weather Stations Pressure Air Temp Water Temp Dewpoint Dewpoint Depression Visibility Wind Speed Wind Dir Waves Ship Positions

Ladyhawk

Owner: GRIGG, STEVEN A, WASHINGTON, DC. More information available from US FCC via Universal Licensing System and Coast Guard Vessel Documentation Center.

Last reported at 2017-Oct-22 18:10 UTC. Time now 2017-Nov-19 10:34 UTC.
Position N 38°58' W 076°28'.
Warning: this ship's position is 27 days out of date.

Length 16 m.

Type: Sailing vessel. MMSI: 338013912.

Date/timePositionNaut miles runAvg speedWind from/ knotsBaromVisibWave heightAir tempDewpointWater temp
2017-Oct-22 18:10N 38°58' W 076°28'0 0.0
2017-Oct-22 17:58N 38°58' W 076°28'0 0.7
2017-Oct-22 17:30N 38°58' W 076°28'4 7.2
2017-Oct-22 17:00N 38°59' W 076°24'3 5.0
2017-Oct-22 16:29N 39°00' W 076°21'2 4.4
2017-Oct-22 16:00N 39°02' W 076°22'3 5.2
2017-Oct-22 15:30N 39°03' W 076°25'2 4.4
2017-Oct-22 15:00N 39°05' W 076°27'1 1.6
2017-Oct-22 14:30N 39°05' W 076°26'0 0.0
2017-Oct-22 13:57N 39°05' W 076°26'0 0.0
2017-Oct-22 13:27N 39°05' W 076°26'0 0.0
2017-Oct-22 12:57N 39°05' W 076°26'0 0.0
2017-Oct-22 12:27N 39°05' W 076°26'0 0.0
2017-Oct-22 12:00N 39°05' W 076°26'0 0.0
2017-Oct-22 11:21N 39°05' W 076°26'0 0.0
2017-Oct-22 11:00N 39°05' W 076°26'0 0.0
2017-Oct-22 09:09N 39°05' W 076°26'0 0.0
2017-Oct-22 08:51N 39°05' W 076°26'0 0.0
2017-Oct-22 08:15N 39°05' W 076°26'0 0.0
2017-Oct-22 07:27N 39°05' W 076°26'0 0.0
2017-Oct-22 06:48N 39°05' W 076°26'0 0.0
2017-Oct-22 06:30N 39°05' W 076°26'1 0.1
2017-Oct-21 17:44N 39°05' W 076°27'2 6.4
2017-Oct-21 17:24N 39°03' W 076°26'2 5.2
2017-Oct-21 17:00N 39°02' W 076°23'3 5.4
2017-Oct-21 16:30N 38°60' W 076°23'3 6.5
2017-Oct-21 16:00N 38°58' W 076°27'2 3.0
2017-Oct-21 15:30N 38°58' W 076°28'0 0.0
2017-Oct-21 15:00N 38°58' W 076°28'0 0.0
2017-Oct-21 14:00N 38°58' W 076°28'0 0.0
2017-Oct-21 13:30N 38°58' W 076°28'0 0.0
2017-Oct-21 13:00N 38°58' W 076°28'0 0.0
2017-Oct-21 12:30N 38°58' W 076°28'0 0.0
2017-Oct-21 12:00N 38°58' W 076°28'0 0.0
2017-Oct-21 11:30N 38°58' W 076°28'0 0.0
2017-Oct-21 11:00N 38°58' W 076°28'0 0.0
2017-Oct-21 10:30N 38°58' W 076°28'0 0.0
2017-Oct-21 10:00N 38°58' W 076°28'0 0.0
2017-Oct-21 09:30N 38°58' W 076°28'0 0.0
2017-Oct-21 09:00N 38°58' W 076°28'0 0.0
2017-Oct-21 08:30N 38°58' W 076°28'0 0.0
2017-Oct-21 08:00N 38°58' W 076°28'0 0.0
2017-Oct-21 07:30N 38°58' W 076°28'0 0.0
2017-Oct-21 07:00N 38°58' W 076°28'0 0.0
2017-Oct-21 06:30N 38°58' W 076°28'0 0.0
2017-Oct-21 06:00N 38°58' W 076°28'0 0.0
2017-Oct-21 05:30N 38°58' W 076°28'0 0.0
2017-Oct-21 05:00N 38°58' W 076°28'0 0.0
2017-Oct-21 04:30N 38°58' W 076°28'0 0.0
2017-Oct-21 04:00N 38°58' W 076°28'0 0.0
2017-Oct-21 03:30N 38°58' W 076°28'0 0.0
2017-Oct-21 03:00N 38°58' W 076°28'0 0.0
2017-Oct-21 02:27N 38°58' W 076°28'0 0.0
2017-Oct-21 02:00N 38°58' W 076°28'0 0.0
2017-Oct-21 01:30N 38°58' W 076°28'0 0.0
2017-Oct-21 01:00N 38°58' W 076°28'0 0.0
2017-Oct-21 00:30N 38°58' W 076°28'0 0.0
2017-Oct-21 00:00N 38°58' W 076°28'0 0.0
2017-Oct-20 23:30N 38°58' W 076°28'0 0.0
2017-Oct-20 23:00N 38°58' W 076°28'0 0.0
2017-Oct-20 22:30N 38°58' W 076°28'0 0.0
2017-Oct-20 22:00N 38°58' W 076°28'0 0.0
2017-Oct-20 21:30N 38°58' W 076°28'0 0.0
2017-Oct-20 21:00N 38°58' W 076°28'0 0.0
2017-Oct-20 20:30N 38°58' W 076°28'0 0.0
2017-Oct-20 20:00N 38°58' W 076°28'0 0.0
2017-Oct-20 19:30N 38°58' W 076°28'0 0.0
2017-Oct-20 19:00N 38°58' W 076°28'  
2017-Oct-15 15:28N 38°58' W 076°28'0 0.0
2017-Oct-15 14:58N 38°58' W 076°28'0 0.0
2017-Oct-15 13:58N 38°58' W 076°28'0 0.0
2017-Oct-15 13:28N 38°58' W 076°28'0 0.0
2017-Oct-15 12:58N 38°58' W 076°28'0 0.0
2017-Oct-15 12:28N 38°58' W 076°28'0 0.0
2017-Oct-15 11:58N 38°58' W 076°28'0 0.0
2017-Oct-15 11:28N 38°58' W 076°28'0 0.0
2017-Oct-15 10:58N 38°58' W 076°28'0 0.0
2017-Oct-15 10:28N 38°58' W 076°28'0 0.0
2017-Oct-15 09:58N 38°58' W 076°28'0 0.0
2017-Oct-15 09:28N 38°58' W 076°28'0 0.0
2017-Oct-15 08:58N 38°58' W 076°28'0 0.0
2017-Oct-15 08:28N 38°58' W 076°28'0 0.0
2017-Oct-15 07:58N 38°58' W 076°28'0 0.0
2017-Oct-15 07:28N 38°58' W 076°28'0 0.0
2017-Oct-15 06:58N 38°58' W 076°28'0 0.0
2017-Oct-15 06:28N 38°58' W 076°28'0 0.0
2017-Oct-15 05:58N 38°58' W 076°28'0 0.0
2017-Oct-15 05:28N 38°58' W 076°28'0 0.0
2017-Oct-15 04:58N 38°58' W 076°28'0 0.0
2017-Oct-15 04:28N 38°58' W 076°28'0 0.0
2017-Oct-15 03:58N 38°58' W 076°28'0 0.0
2017-Oct-15 03:28N 38°58' W 076°28'0 0.0
2017-Oct-15 02:58N 38°58' W 076°28'0 0.0
2017-Oct-15 02:28N 38°58' W 076°28'0 0.0
2017-Oct-15 01:58N 38°58' W 076°28'0 0.0
2017-Oct-15 01:28N 38°58' W 076°28'0 0.0
2017-Oct-15 00:58N 38°58' W 076°28'0 0.0
2017-Oct-15 00:28N 38°58' W 076°28'0 0.0
2017-Oct-14 23:58N 38°58' W 076°28'0 0.0
2017-Oct-14 23:28N 38°58' W 076°28'0 0.0
2017-Oct-14 22:58N 38°58' W 076°28'0 0.0
2017-Oct-14 22:28N 38°58' W 076°28'0 0.0
2017-Oct-14 21:58N 38°58' W 076°28'0 0.0
2017-Oct-14 21:28N 38°58' W 076°28'0 0.0
2017-Oct-14 20:58N 38°58' W 076°28'0 0.0
2017-Oct-14 20:28N 38°58' W 076°28'0 0.0
2017-Oct-14 19:58N 38°58' W 076°28'0 0.0
2017-Oct-14 19:28N 38°58' W 076°28'0 0.0
2017-Oct-14 18:58N 38°58' W 076°28'0 0.0
2017-Oct-14 18:28N 38°58' W 076°28'0 0.0
2017-Oct-14 17:58N 38°58' W 076°28'0 0.0
2017-Oct-14 17:28N 38°58' W 076°28'0 0.0
2017-Oct-14 16:58N 38°58' W 076°28'0 0.0
2017-Oct-14 16:28N 38°58' W 076°28'0 0.0
2017-Oct-14 15:58N 38°58' W 076°28'0 0.0
2017-Oct-14 15:28N 38°58' W 076°28'0 0.0
2017-Oct-14 14:58N 38°58' W 076°28'0 0.0
2017-Oct-14 14:28N 38°58' W 076°28'0 0.0
2017-Oct-14 13:58N 38°58' W 076°28'0 0.0
2017-Oct-14 13:28N 38°58' W 076°28'0 0.0
2017-Oct-14 12:58N 38°58' W 076°28'0 0.0
2017-Oct-14 12:28N 38°58' W 076°28'0 0.0
2017-Oct-14 11:58N 38°58' W 076°28'0 0.0
2017-Oct-14 11:28N 38°58' W 076°28'0 0.0
2017-Oct-14 10:58N 38°58' W 076°28'0 0.0
2017-Oct-14 10:28N 38°58' W 076°28'0 0.0
2017-Oct-14 09:58N 38°58' W 076°28'0 0.0
2017-Oct-14 09:28N 38°58' W 076°28'0 0.0
2017-Oct-14 08:58N 38°58' W 076°28'0 0.0
2017-Oct-14 08:28N 38°58' W 076°28'0 0.0
2017-Oct-14 07:58N 38°58' W 076°28'0 0.0
2017-Oct-14 07:25N 38°58' W 076°28'0 0.0
2017-Oct-14 06:58N 38°58' W 076°28'0 0.0
2017-Oct-14 06:28N 38°58' W 076°28'0 0.0
2017-Oct-14 05:58N 38°58' W 076°28'0 0.0
2017-Oct-14 05:28N 38°58' W 076°28'0 0.0
2017-Oct-14 04:58N 38°58' W 076°28'0 0.0
2017-Oct-14 04:28N 38°58' W 076°28'0 0.0
2017-Oct-14 03:58N 38°58' W 076°28'0 0.0
2017-Oct-14 03:28N 38°58' W 076°28'0 0.0
2017-Oct-14 02:58N 38°58' W 076°28'0 0.0
2017-Oct-14 02:28N 38°58' W 076°28'0 0.0
2017-Oct-14 01:58N 38°58' W 076°28'0 0.0
2017-Oct-13 23:19N 38°58' W 076°28'0 0.0
2017-Oct-13 22:58N 38°58' W 076°28'0 0.0
2017-Oct-13 22:28N 38°58' W 076°28'0 0.0
2017-Oct-13 21:58N 38°58' W 076°28'0 0.0
2017-Oct-13 21:28N 38°58' W 076°28'0 0.0
2017-Oct-13 20:58N 38°58' W 076°28'  

Dump ship's entire track history